Southwest Washington Regional Airport
KKLS : now visible

Airfield :











YOU CAN JOIN US ON...

 
LOGIN :

Register | Disclaimer

   EN    FR    IT 

 









Legend :    VFR   Marginal VFR   IFR   Intensive IFR   Very Intensive IFR
Visi :
Ceiling :
>= 8 km
>= 3000ft
5 to 8 km
1000 to 3000 ft
1500m to 5 km
500 to 1000 ft
800 to 1500m
200 to 500 ft
< 800m
< 200 ft
Symbols :   Thunderstorms  Fog  Heavy snow  Heavy precipitations  Wind > 20 kt






- Airport Elevation : 20 ft


KKLS - Southwest Washington Regional

CURRENT METAR :
  • 272056Z AUTO 14003KT 10SM FEW034 BKN060 BKN120 09/01 A3033 RMK AO2 SLP273 T00940011 50006

EXPIRED METARs :
  • 271956Z AUTO 20006KT 10SM FEW055 09/02 A3033 RMK AO2 SLP275 T00890022
  • 271856Z AUTO 18005KT 10SM CLR 08/04 A3032 RMK AO2 SLP271 T00780039

TAF N/A
KZSE FIR / North America



MET'MAP, your aeronautical weather chart ! - Copyright ORBIFLY December 2007 - Disclaimer

ORBIFLY MET'MAP TEAM :

Programming & Development : Alexandra Zaïnal
Concept & original design : Baudouin d'Aumeries
Assistance for programming : Marc-Olivier Méhu
Technical & hardware support : Manuel Goepfert

Contact : metmap@orbifly.com




SOURCES & CREDITS :

   NOAA       Earth
Advisory